sensor_id;sensor_type;location;lat;lon;timestamp;P1;durP1;ratioP1;P2;durP2;ratioP2
75649;SDS011;64245;51.282;22.494;2023-09-19T00:01:42;4.75;;;2.38;;
75649;SDS011;64245;51.282;22.494;2023-09-19T00:04:13;4.65;;;2.58;;
75649;SDS011;64245;51.282;22.494;2023-09-19T00:06:39;4.47;;;2.40;;
75649;SDS011;64245;51.282;22.494;2023-09-19T00:09:05;5.07;;;2.92;;
75649;SDS011;64245;51.282;22.494;2023-09-19T00:11:36;5.57;;;2.67;;
75649;SDS011;64245;51.282;22.494;2023-09-19T00:14:03;3.75;;;2.13;;
75649;SDS011;64245;51.282;22.494;2023-09-19T00:16:30;3.92;;;2.30;;
75649;SDS011;64245;51.282;22.494;2023-09-19T00:21:28;5.05;;;2.75;;
75649;SDS011;64245;51.282;22.494;2023-09-19T00:23:57;4.82;;;2.67;;
75649;SDS011;64245;51.282;22.494;2023-09-19T00:26:22;4.85;;;2.70;;
75649;SDS011;64245;51.282;22.494;2023-09-19T00:28:52;3.90;;;2.25;;
75649;SDS011;64245;51.282;22.494;2023-09-19T00:31:17;4.70;;;2.80;;
75649;SDS011;64245;51.282;22.494;2023-09-19T00:33:43;5.28;;;2.58;;
75649;SDS011;64245;51.282;22.494;2023-09-19T00:36:09;4.50;;;2.47;;
75649;SDS011;64245;51.282;22.494;2023-09-19T00:38:35;4.68;;;2.60;;
75649;SDS011;64245;51.282;22.494;2023-09-19T00:41:00;4.72;;;2.70;;
75649;SDS011;64245;51.282;22.494;2023-09-19T00:43:26;6.93;;;2.58;;
75649;SDS011;64245;51.282;22.494;2023-09-19T00:45:53;4.43;;;2.72;;
75649;SDS011;64245;51.282;22.494;2023-09-19T00:48:20;4.93;;;2.38;;
75649;SDS011;64245;51.282;22.494;2023-09-19T00:50:47;4.07;;;2.20;;
75649;SDS011;64245;51.282;22.494;2023-09-19T00:53:18;4.45;;;3.08;;
75649;SDS011;64245;51.282;22.494;2023-09-19T00:55:46;5.65;;;2.40;;
75649;SDS011;64245;51.282;22.494;2023-09-19T00:58:13;6.47;;;2.55;;
75649;SDS011;64245;51.282;22.494;2023-09-19T01:00:40;6.22;;;2.70;;
75649;SDS011;64245;51.282;22.494;2023-09-19T01:03:06;3.92;;;2.72;;
75649;SDS011;64245;51.282;22.494;2023-09-19T01:05:35;5.22;;;2.60;;
75649;SDS011;64245;51.282;22.494;2023-09-19T01:08:01;5.78;;;2.60;;
75649;SDS011;64245;51.282;22.494;2023-09-19T01:10:27;6.13;;;2.70;;
75649;SDS011;64245;51.282;22.494;2023-09-19T01:18:40;5.47;;;2.67;;
75649;SDS011;64245;51.282;22.494;2023-09-19T01:21:16;4.68;;;2.90;;
75649;SDS011;64245;51.282;22.494;2023-09-19T01:24:16;5.03;;;2.42;;
75649;SDS011;64245;51.282;22.494;2023-09-19T01:30:17;4.55;;;2.42;;
75649;SDS011;64245;51.282;22.494;2023-09-19T01:32:51;4.03;;;2.53;;
75649;SDS011;64245;51.282;22.494;2023-09-19T01:35:18;5.60;;;3.03;;
75649;SDS011;64245;51.282;22.494;2023-09-19T01:37:44;6.10;;;2.70;;
75649;SDS011;64245;51.282;22.494;2023-09-19T01:40:12;4.80;;;2.85;;
75649;SDS011;64245;51.282;22.494;2023-09-19T01:45:47;3.78;;;2.60;;
75649;SDS011;64245;51.282;22.494;2023-09-19T01:48:25;6.25;;;2.75;;
75649;SDS011;64245;51.282;22.494;2023-09-19T01:51:09;6.35;;;3.10;;
75649;SDS011;64245;51.282;22.494;2023-09-19T01:53:41;4.20;;;2.70;;
75649;SDS011;64245;51.282;22.494;2023-09-19T01:56:32;6.32;;;2.92;;
75649;SDS011;64245;51.282;22.494;2023-09-19T01:59:04;5.18;;;2.72;;
75649;SDS011;64245;51.282;22.494;2023-09-19T02:01:35;5.22;;;2.97;;
75649;SDS011;64245;51.282;22.494;2023-09-19T02:04:03;4.93;;;2.67;;
75649;SDS011;64245;51.282;22.494;2023-09-19T02:06:29;3.83;;;2.50;;
75649;SDS011;64245;51.282;22.494;2023-09-19T02:08:55;8.13;;;2.83;;
75649;SDS011;64245;51.282;22.494;2023-09-19T02:11:21;5.68;;;3.30;;
75649;SDS011;64245;51.282;22.494;2023-09-19T02:13:46;4.70;;;2.55;;
75649;SDS011;64245;51.282;22.494;2023-09-19T02:16:12;5.28;;;2.80;;
75649;SDS011;64245;51.282;22.494;2023-09-19T02:18:38;5.78;;;3.05;;
75649;SDS011;64245;51.282;22.494;2023-09-19T02:21:05;4.72;;;2.88;;
75649;SDS011;64245;51.282;22.494;2023-09-19T02:23:32;4.13;;;3.00;;
75649;SDS011;64245;51.282;22.494;2023-09-19T02:25:59;5.63;;;2.90;;
75649;SDS011;64245;51.282;22.494;2023-09-19T02:28:30;4.97;;;2.60;;
75649;SDS011;64245;51.282;22.494;2023-09-19T02:31:00;5.45;;;3.08;;
75649;SDS011;64245;51.282;22.494;2023-09-19T02:33:26;6.05;;;3.17;;
75649;SDS011;64245;51.282;22.494;2023-09-19T02:35:57;4.90;;;2.58;;
75649;SDS011;64245;51.282;22.494;2023-09-19T02:38:23;7.10;;;3.28;;
75649;SDS011;64245;51.282;22.494;2023-09-19T02:40:50;5.18;;;2.45;;
75649;SDS011;64245;51.282;22.494;2023-09-19T02:43:16;5.88;;;3.05;;
75649;SDS011;64245;51.282;22.494;2023-09-19T02:45:42;5.90;;;2.90;;
75649;SDS011;64245;51.282;22.494;2023-09-19T02:48:08;5.10;;;3.50;;
75649;SDS011;64245;51.282;22.494;2023-09-19T02:50:34;4.43;;;2.88;;
75649;SDS011;64245;51.282;22.494;2023-09-19T02:52:59;6.03;;;3.55;;
75649;SDS011;64245;51.282;22.494;2023-09-19T02:55:25;5.32;;;2.42;;
75649;SDS011;64245;51.282;22.494;2023-09-19T02:57:52;8.10;;;3.47;;
75649;SDS011;64245;51.282;22.494;2023-09-19T03:00:20;5.75;;;2.95;;
75649;SDS011;64245;51.282;22.494;2023-09-19T03:02:54;5.82;;;2.70;;
75649;SDS011;64245;51.282;22.494;2023-09-19T03:05:21;5.57;;;3.17;;
75649;SDS011;64245;51.282;22.494;2023-09-19T03:07:48;6.32;;;3.33;;
75649;SDS011;64245;51.282;22.494;2023-09-19T03:10:16;5.28;;;2.80;;
75649;SDS011;64245;51.282;22.494;2023-09-19T03:12:43;4.95;;;2.88;;
75649;SDS011;64245;51.282;22.494;2023-09-19T03:15:11;5.90;;;2.65;;
75649;SDS011;64245;51.282;22.494;2023-09-19T03:17:36;6.45;;;2.55;;
75649;SDS011;64245;51.282;22.494;2023-09-19T03:20:03;6.25;;;2.92;;
75649;SDS011;64245;51.282;22.494;2023-09-19T03:22:34;5.32;;;2.80;;
75649;SDS011;64245;51.282;22.494;2023-09-19T03:25:00;6.55;;;3.22;;
75649;SDS011;64245;51.282;22.494;2023-09-19T03:27:26;4.70;;;3.00;;
75649;SDS011;64245;51.282;22.494;2023-09-19T03:29:52;6.05;;;2.78;;
75649;SDS011;64245;51.282;22.494;2023-09-19T03:32:19;5.35;;;2.83;;
75649;SDS011;64245;51.282;22.494;2023-09-19T03:34:44;5.65;;;3.17;;
75649;SDS011;64245;51.282;22.494;2023-09-19T03:37:10;6.20;;;3.08;;
75649;SDS011;64245;51.282;22.494;2023-09-19T03:39:36;5.13;;;2.75;;
75649;SDS011;64245;51.282;22.494;2023-09-19T03:42:01;5.93;;;3.28;;
75649;SDS011;64245;51.282;22.494;2023-09-19T03:44:32;6.50;;;3.00;;
75649;SDS011;64245;51.282;22.494;2023-09-19T03:46:58;3.55;;;2.10;;
75649;SDS011;64245;51.282;22.494;2023-09-19T03:49:24;6.38;;;3.00;;
75649;SDS011;64245;51.282;22.494;2023-09-19T03:51:50;4.95;;;2.58;;
75649;SDS011;64245;51.282;22.494;2023-09-19T03:54:15;6.95;;;3.38;;
75649;SDS011;64245;51.282;22.494;2023-09-19T03:56:42;6.70;;;3.28;;
75649;SDS011;64245;51.282;22.494;2023-09-19T03:59:09;5.13;;;2.60;;
75649;SDS011;64245;51.282;22.494;2023-09-19T04:01:35;7.15;;;3.92;;
75649;SDS011;64245;51.282;22.494;2023-09-19T04:04:01;5.22;;;3.25;;
75649;SDS011;64245;51.282;22.494;2023-09-19T04:06:36;4.88;;;2.53;;
75649;SDS011;64245;51.282;22.494;2023-09-19T04:09:03;4.78;;;2.65;;
75649;SDS011;64245;51.282;22.494;2023-09-19T04:11:32;4.57;;;2.83;;
75649;SDS011;64245;51.282;22.494;2023-09-19T04:13:59;4.32;;;2.22;;
75649;SDS011;64245;51.282;22.494;2023-09-19T04:16:24;5.55;;;3.08;;
75649;SDS011;64245;51.282;22.494;2023-09-19T04:18:50;4.22;;;2.83;;
75649;SDS011;64245;51.282;22.494;2023-09-19T04:21:16;4.80;;;2.53;;
75649;SDS011;64245;51.282;22.494;2023-09-19T04:23:42;5.45;;;2.97;;
75649;SDS011;64245;51.282;22.494;2023-09-19T04:26:08;7.13;;;2.40;;
75649;SDS011;64245;51.282;22.494;2023-09-19T04:28:34;4.65;;;2.75;;
75649;SDS011;64245;51.282;22.494;2023-09-19T04:31:03;5.57;;;2.92;;
75649;SDS011;64245;51.282;22.494;2023-09-19T04:33:29;8.10;;;3.17;;
75649;SDS011;64245;51.282;22.494;2023-09-19T04:35:55;4.97;;;3.00;;
75649;SDS011;64245;51.282;22.494;2023-09-19T04:38:21;5.82;;;3.10;;
75649;SDS011;64245;51.282;22.494;2023-09-19T04:40:47;5.93;;;3.00;;
75649;SDS011;64245;51.282;22.494;2023-09-19T04:43:13;4.45;;;2.70;;
75649;SDS011;64245;51.282;22.494;2023-09-19T04:45:40;6.70;;;2.90;;
75649;SDS011;64245;51.282;22.494;2023-09-19T04:48:06;5.30;;;2.97;;
75649;SDS011;64245;51.282;22.494;2023-09-19T04:50:34;6.60;;;3.25;;
75649;SDS011;64245;51.282;22.494;2023-09-19T04:53:00;6.07;;;3.55;;
75649;SDS011;64245;51.282;22.494;2023-09-19T04:55:26;5.95;;;3.08;;
75649;SDS011;64245;51.282;22.494;2023-09-19T04:57:52;4.82;;;2.72;;
75649;SDS011;64245;51.282;22.494;2023-09-19T05:00:22;6.15;;;3.50;;
75649;SDS011;64245;51.282;22.494;2023-09-19T05:02:57;5.72;;;3.00;;
75649;SDS011;64245;51.282;22.494;2023-09-19T05:05:22;5.25;;;2.67;;
75649;SDS011;64245;51.282;22.494;2023-09-19T05:07:49;5.50;;;2.70;;
75649;SDS011;64245;51.282;22.494;2023-09-19T05:10:16;5.68;;;2.85;;
75649;SDS011;64245;51.282;22.494;2023-09-19T05:12:47;6.65;;;2.72;;
75649;SDS011;64245;51.282;22.494;2023-09-19T05:15:13;4.78;;;2.97;;
75649;SDS011;64245;51.282;22.494;2023-09-19T05:17:49;5.07;;;2.60;;
75649;SDS011;64245;51.282;22.494;2023-09-19T05:20:16;5.07;;;2.67;;
75649;SDS011;64245;51.282;22.494;2023-09-19T05:22:42;4.47;;;2.50;;
75649;SDS011;64245;51.282;22.494;2023-09-19T05:25:10;5.53;;;2.85;;
75649;SDS011;64245;51.282;22.494;2023-09-19T05:27:42;4.88;;;3.08;;
75649;SDS011;64245;51.282;22.494;2023-09-19T05:30:10;4.32;;;2.70;;
75649;SDS011;64245;51.282;22.494;2023-09-19T05:32:36;4.63;;;2.67;;
75649;SDS011;64245;51.282;22.494;2023-09-19T05:35:02;4.20;;;3.00;;
75649;SDS011;64245;51.282;22.494;2023-09-19T05:37:28;7.00;;;2.45;;
75649;SDS011;64245;51.282;22.494;2023-09-19T05:39:55;6.70;;;3.20;;
75649;SDS011;64245;51.282;22.494;2023-09-19T05:42:21;5.38;;;2.97;;
75649;SDS011;64245;51.282;22.494;2023-09-19T05:44:46;4.40;;;3.05;;
75649;SDS011;64245;51.282;22.494;2023-09-19T05:47:12;5.18;;;3.10;;
75649;SDS011;64245;51.282;22.494;2023-09-19T05:49:38;7.97;;;3.47;;
75649;SDS011;64245;51.282;22.494;2023-09-19T05:52:07;5.25;;;3.42;;
75649;SDS011;64245;51.282;22.494;2023-09-19T05:54:35;5.15;;;2.83;;
75649;SDS011;64245;51.282;22.494;2023-09-19T05:57:03;4.53;;;2.92;;
75649;SDS011;64245;51.282;22.494;2023-09-19T05:59:29;4.70;;;2.67;;
75649;SDS011;64245;51.282;22.494;2023-09-19T06:01:55;5.32;;;3.08;;
75649;SDS011;64245;51.282;22.494;2023-09-19T06:04:21;6.50;;;3.40;;
75649;SDS011;64245;51.282;22.494;2023-09-19T06:06:47;5.28;;;2.75;;
75649;SDS011;64245;51.282;22.494;2023-09-19T06:09:14;4.85;;;2.72;;
75649;SDS011;64245;51.282;22.494;2023-09-19T06:11:43;5.50;;;3.08;;
75649;SDS011;64245;51.282;22.494;2023-09-19T06:14:08;5.30;;;2.90;;
75649;SDS011;64245;51.282;22.494;2023-09-19T06:16:36;4.50;;;2.83;;
75649;SDS011;64245;51.282;22.494;2023-09-19T06:19:06;5.78;;;3.28;;
75649;SDS011;64245;51.282;22.494;2023-09-19T06:21:34;4.18;;;2.78;;
75649;SDS011;64245;51.282;22.494;2023-09-19T06:24:00;5.13;;;3.08;;
75649;SDS011;64245;51.282;22.494;2023-09-19T06:26:26;4.03;;;2.85;;
75649;SDS011;64245;51.282;22.494;2023-09-19T06:28:52;5.82;;;3.20;;
75649;SDS011;64245;51.282;22.494;2023-09-19T06:31:18;4.10;;;2.58;;
75649;SDS011;64245;51.282;22.494;2023-09-19T06:33:46;4.55;;;3.00;;
75649;SDS011;64245;51.282;22.494;2023-09-19T06:36:12;3.97;;;2.88;;
75649;SDS011;64245;51.282;22.494;2023-09-19T06:38:38;5.07;;;2.78;;
75649;SDS011;64245;51.282;22.494;2023-09-19T06:41:04;4.78;;;3.08;;
75649;SDS011;64245;51.282;22.494;2023-09-19T06:43:31;5.22;;;2.88;;
75649;SDS011;64245;51.282;22.494;2023-09-19T06:45:57;5.65;;;3.35;;
75649;SDS011;64245;51.282;22.494;2023-09-19T06:48:23;5.45;;;2.92;;
75649;SDS011;64245;51.282;22.494;2023-09-19T06:50:55;4.72;;;3.45;;
75649;SDS011;64245;51.282;22.494;2023-09-19T06:53:24;4.75;;;3.15;;
75649;SDS011;64245;51.282;22.494;2023-09-19T06:55:51;3.78;;;2.45;;
75649;SDS011;64245;51.282;22.494;2023-09-19T06:58:17;4.55;;;2.80;;
75649;SDS011;64245;51.282;22.494;2023-09-19T07:00:42;4.15;;;2.45;;
75649;SDS011;64245;51.282;22.494;2023-09-19T07:03:10;5.40;;;2.95;;
75649;SDS011;64245;51.282;22.494;2023-09-19T07:05:41;4.65;;;2.80;;
75649;SDS011;64245;51.282;22.494;2023-09-19T07:08:08;5.25;;;2.80;;
75649;SDS011;64245;51.282;22.494;2023-09-19T07:10:36;3.80;;;2.35;;
75649;SDS011;64245;51.282;22.494;2023-09-19T07:13:02;4.43;;;2.53;;
75649;SDS011;64245;51.282;22.494;2023-09-19T07:15:29;4.13;;;3.20;;
75649;SDS011;64245;51.282;22.494;2023-09-19T07:17:59;5.53;;;3.00;;
75649;SDS011;64245;51.282;22.494;2023-09-19T07:20:26;4.35;;;2.80;;
75649;SDS011;64245;51.282;22.494;2023-09-19T07:22:53;4.05;;;2.60;;
75649;SDS011;64245;51.282;22.494;2023-09-19T07:25:21;6.00;;;2.92;;
75649;SDS011;64245;51.282;22.494;2023-09-19T07:27:47;4.20;;;2.40;;
75649;SDS011;64245;51.282;22.494;2023-09-19T07:30:13;4.13;;;2.95;;
75649;SDS011;64245;51.282;22.494;2023-09-19T07:32:40;3.72;;;2.83;;
75649;SDS011;64245;51.282;22.494;2023-09-19T07:35:06;4.47;;;3.00;;
75649;SDS011;64245;51.282;22.494;2023-09-19T07:37:32;5.43;;;3.17;;
75649;SDS011;64245;51.282;22.494;2023-09-19T07:39:59;4.47;;;2.97;;
75649;SDS011;64245;51.282;22.494;2023-09-19T07:42:26;7.70;;;3.35;;
75649;SDS011;64245;51.282;22.494;2023-09-19T07:44:52;4.93;;;2.30;;
75649;SDS011;64245;51.282;22.494;2023-09-19T07:47:19;5.68;;;2.92;;
75649;SDS011;64245;51.282;22.494;2023-09-19T07:49:46;6.05;;;2.92;;
75649;SDS011;64245;51.282;22.494;2023-09-19T07:52:13;4.80;;;2.90;;
75649;SDS011;64245;51.282;22.494;2023-09-19T07:54:39;4.65;;;2.63;;
75649;SDS011;64245;51.282;22.494;2023-09-19T07:57:10;3.63;;;2.85;;
75649;SDS011;64245;51.282;22.494;2023-09-19T07:59:37;5.28;;;2.97;;
75649;SDS011;64245;51.282;22.494;2023-09-19T08:02:04;3.90;;;2.70;;
75649;SDS011;64245;51.282;22.494;2023-09-19T08:04:30;4.53;;;2.38;;
75649;SDS011;64245;51.282;22.494;2023-09-19T08:06:59;4.13;;;2.67;;
75649;SDS011;64245;51.282;22.494;2023-09-19T08:09:26;4.88;;;2.88;;
75649;SDS011;64245;51.282;22.494;2023-09-19T08:11:53;4.00;;;2.78;;
75649;SDS011;64245;51.282;22.494;2023-09-19T08:14:19;4.18;;;2.42;;
75649;SDS011;64245;51.282;22.494;2023-09-19T08:16:45;4.75;;;2.60;;
75649;SDS011;64245;51.282;22.494;2023-09-19T08:19:12;3.92;;;2.53;;
75649;SDS011;64245;51.282;22.494;2023-09-19T08:21:38;4.03;;;2.67;;
75649;SDS011;64245;51.282;22.494;2023-09-19T08:24:03;3.40;;;2.30;;
75649;SDS011;64245;51.282;22.494;2023-09-19T08:26:29;5.40;;;3.10;;
75649;SDS011;64245;51.282;22.494;2023-09-19T08:28:56;4.75;;;2.75;;
75649;SDS011;64245;51.282;22.494;2023-09-19T08:31:22;6.85;;;2.83;;
75649;SDS011;64245;51.282;22.494;2023-09-19T08:33:49;4.68;;;2.85;;
75649;SDS011;64245;51.282;22.494;2023-09-19T08:36:17;5.88;;;2.67;;
75649;SDS011;64245;51.282;22.494;2023-09-19T08:38:43;5.75;;;2.88;;
75649;SDS011;64245;51.282;22.494;2023-09-19T08:41:09;5.35;;;3.00;;
75649;SDS011;64245;51.282;22.494;2023-09-19T08:43:35;4.00;;;3.00;;
75649;SDS011;64245;51.282;22.494;2023-09-19T08:48:35;3.63;;;2.70;;
75649;SDS011;64245;51.282;22.494;2023-09-19T08:51:10;5.63;;;3.38;;
75649;SDS011;64245;51.282;22.494;2023-09-19T08:53:43;5.22;;;3.05;;
75649;SDS011;64245;51.282;22.494;2023-09-19T08:56:14;6.47;;;3.28;;
75649;SDS011;64245;51.282;22.494;2023-09-19T08:58:48;5.55;;;2.97;;
75649;SDS011;64245;51.282;22.494;2023-09-19T09:01:19;7.63;;;3.72;;
75649;SDS011;64245;51.282;22.494;2023-09-19T09:03:52;6.15;;;3.25;;
75649;SDS011;64245;51.282;22.494;2023-09-19T09:06:19;6.65;;;3.78;;
75649;SDS011;64245;51.282;22.494;2023-09-19T09:08:46;6.65;;;4.03;;
75649;SDS011;64245;51.282;22.494;2023-09-19T09:11:16;5.63;;;3.83;;
75649;SDS011;64245;51.282;22.494;2023-09-19T09:13:45;5.60;;;3.60;;
75649;SDS011;64245;51.282;22.494;2023-09-19T09:16:13;6.00;;;3.70;;
75649;SDS011;64245;51.282;22.494;2023-09-19T09:18:43;5.28;;;3.33;;
75649;SDS011;64245;51.282;22.494;2023-09-19T09:21:11;4.35;;;2.70;;
75649;SDS011;64245;51.282;22.494;2023-09-19T09:23:39;4.47;;;3.15;;
75649;SDS011;64245;51.282;22.494;2023-09-19T09:26:05;5.85;;;3.47;;
75649;SDS011;64245;51.282;22.494;2023-09-19T09:28:33;4.18;;;3.00;;
75649;SDS011;64245;51.282;22.494;2023-09-19T09:31:01;5.13;;;3.95;;
75649;SDS011;64245;51.282;22.494;2023-09-19T09:33:30;5.47;;;3.42;;
75649;SDS011;64245;51.282;22.494;2023-09-19T09:36:00;6.57;;;3.65;;
75649;SDS011;64245;51.282;22.494;2023-09-19T09:38:28;5.75;;;2.90;;
75649;SDS011;64245;51.282;22.494;2023-09-19T09:40:59;7.00;;;3.97;;
75649;SDS011;64245;51.282;22.494;2023-09-19T09:43:26;5.78;;;3.60;;
75649;SDS011;64245;51.282;22.494;2023-09-19T09:46:10;6.82;;;3.80;;
75649;SDS011;64245;51.282;22.494;2023-09-19T09:54:32;5.22;;;3.30;;
75649;SDS011;64245;51.282;22.494;2023-09-19T09:57:06;6.32;;;3.28;;
75649;SDS011;64245;51.282;22.494;2023-09-19T09:59:52;5.45;;;3.35;;
75649;SDS011;64245;51.282;22.494;2023-09-19T10:02:20;5.78;;;2.97;;
75649;SDS011;64245;51.282;22.494;2023-09-19T10:04:54;8.02;;;3.95;;
75649;SDS011;64245;51.282;22.494;2023-09-19T10:07:33;5.70;;;3.50;;
75649;SDS011;64245;51.282;22.494;2023-09-19T10:10:03;6.72;;;3.30;;
75649;SDS011;64245;51.282;22.494;2023-09-19T10:12:45;5.18;;;3.10;;
75649;SDS011;64245;51.282;22.494;2023-09-19T10:15:17;5.93;;;3.40;;
75649;SDS011;64245;51.282;22.494;2023-09-19T10:17:46;6.65;;;3.58;;
75649;SDS011;64245;51.282;22.494;2023-09-19T10:20:14;5.47;;;3.60;;
75649;SDS011;64245;51.282;22.494;2023-09-19T10:22:59;5.50;;;3.33;;
75649;SDS011;64245;51.282;22.494;2023-09-19T10:25:27;5.32;;;3.60;;
75649;SDS011;64245;51.282;22.494;2023-09-19T10:27:57;5.63;;;3.63;;
75649;SDS011;64245;51.282;22.494;2023-09-19T10:30:28;4.80;;;3.67;;
75649;SDS011;64245;51.282;22.494;2023-09-19T10:32:57;5.75;;;3.60;;
75649;SDS011;64245;51.282;22.494;2023-09-19T10:35:26;8.65;;;3.28;;
75649;SDS011;64245;51.282;22.494;2023-09-19T10:37:57;6.43;;;3.75;;
75649;SDS011;64245;51.282;22.494;2023-09-19T10:40:26;5.57;;;3.95;;
75649;SDS011;64245;51.282;22.494;2023-09-19T10:43:03;7.50;;;3.58;;
75649;SDS011;64245;51.282;22.494;2023-09-19T10:48:01;5.68;;;3.75;;
75649;SDS011;64245;51.282;22.494;2023-09-19T10:50:33;6.18;;;4.13;;
75649;SDS011;64245;51.282;22.494;2023-09-19T10:53:20;6.88;;;3.80;;
75649;SDS011;64245;51.282;22.494;2023-09-19T10:55:52;6.85;;;3.67;;
75649;SDS011;64245;51.282;22.494;2023-09-19T10:58:29;4.57;;;3.17;;
75649;SDS011;64245;51.282;22.494;2023-09-19T11:00:59;5.75;;;3.03;;
75649;SDS011;64245;51.282;22.494;2023-09-19T11:03:41;4.78;;;3.22;;
75649;SDS011;64245;51.282;22.494;2023-09-19T11:30:55;8.20;;;3.33;;
75649;SDS011;64245;51.282;22.494;2023-09-19T11:36:09;5.60;;;3.70;;
75649;SDS011;64245;51.282;22.494;2023-09-19T11:43:45;5.13;;;3.35;;
75649;SDS011;64245;51.282;22.494;2023-09-19T11:46:12;3.90;;;3.38;;
75649;SDS011;64245;51.282;22.494;2023-09-19T11:48:42;5.80;;;3.70;;
75649;SDS011;64245;51.282;22.494;2023-09-19T11:51:13;5.55;;;4.30;;
75649;SDS011;64245;51.282;22.494;2023-09-19T11:53:47;6.60;;;4.03;;
75649;SDS011;64245;51.282;22.494;2023-09-19T11:56:18;7.38;;;4.18;;
75649;SDS011;64245;51.282;22.494;2023-09-19T11:58:49;6.03;;;4.13;;
75649;SDS011;64245;51.282;22.494;2023-09-19T12:01:23;7.10;;;3.60;;
75649;SDS011;64245;51.282;22.494;2023-09-19T12:03:57;8.95;;;4.43;;
75649;SDS011;64245;51.282;22.494;2023-09-19T12:06:25;8.43;;;4.78;;
75649;SDS011;64245;51.282;22.494;2023-09-19T12:08:52;7.43;;;3.90;;
75649;SDS011;64245;51.282;22.494;2023-09-19T12:11:23;7.00;;;4.25;;
75649;SDS011;64245;51.282;22.494;2023-09-19T12:13:50;7.50;;;4.45;;
75649;SDS011;64245;51.282;22.494;2023-09-19T12:16:20;10.50;;;5.10;;
75649;SDS011;64245;51.282;22.494;2023-09-19T12:18:50;9.00;;;4.90;;
75649;SDS011;64245;51.282;22.494;2023-09-19T12:21:23;8.75;;;4.68;;
75649;SDS011;64245;51.282;22.494;2023-09-19T12:23:59;7.30;;;4.32;;
75649;SDS011;64245;51.282;22.494;2023-09-19T12:26:30;7.97;;;4.55;;
75649;SDS011;64245;51.282;22.494;2023-09-19T12:29:02;6.65;;;4.20;;
75649;SDS011;64245;51.282;22.494;2023-09-19T12:31:31;9.43;;;4.45;;
75649;SDS011;64245;51.282;22.494;2023-09-19T12:34:02;6.43;;;4.18;;
75649;SDS011;64245;51.282;22.494;2023-09-19T12:36:28;9.35;;;4.97;;
75649;SDS011;64245;51.282;22.494;2023-09-19T12:38:57;9.93;;;4.75;;
75649;SDS011;64245;51.282;22.494;2023-09-19T12:41:25;8.38;;;4.40;;
75649;SDS011;64245;51.282;22.494;2023-09-19T12:43:52;9.20;;;4.28;;
75649;SDS011;64245;51.282;22.494;2023-09-19T12:46:22;8.57;;;4.55;;
75649;SDS011;64245;51.282;22.494;2023-09-19T12:51:43;7.55;;;4.88;;
75649;SDS011;64245;51.282;22.494;2023-09-19T12:54:09;8.18;;;4.28;;
75649;SDS011;64245;51.282;22.494;2023-09-19T12:56:41;8.85;;;4.40;;
75649;SDS011;64245;51.282;22.494;2023-09-19T12:59:11;9.90;;;4.85;;
75649;SDS011;64245;51.282;22.494;2023-09-19T13:01:39;7.45;;;4.43;;
75649;SDS011;64245;51.282;22.494;2023-09-19T13:04:17;7.82;;;4.80;;
75649;SDS011;64245;51.282;22.494;2023-09-19T13:06:46;7.60;;;3.90;;
75649;SDS011;64245;51.282;22.494;2023-09-19T13:09:14;5.88;;;3.90;;
75649;SDS011;64245;51.282;22.494;2023-09-19T13:11:41;5.80;;;3.53;;
75649;SDS011;64245;51.282;22.494;2023-09-19T13:19:40;6.88;;;3.22;;
75649;SDS011;64245;51.282;22.494;2023-09-19T13:22:36;6.97;;;3.00;;
75649;SDS011;64245;51.282;22.494;2023-09-19T13:25:17;4.95;;;2.97;;
75649;SDS011;64245;51.282;22.494;2023-09-19T13:27:45;4.47;;;3.13;;
75649;SDS011;64245;51.282;22.494;2023-09-19T13:30:20;6.95;;;3.75;;
75649;SDS011;64245;51.282;22.494;2023-09-19T13:32:46;4.70;;;3.10;;
75649;SDS011;64245;51.282;22.494;2023-09-19T13:35:13;5.85;;;3.28;;
75649;SDS011;64245;51.282;22.494;2023-09-19T13:37:40;5.13;;;3.22;;
75649;SDS011;64245;51.282;22.494;2023-09-19T13:40:12;3.83;;;2.70;;
75649;SDS011;64245;51.282;22.494;2023-09-19T13:42:41;5.30;;;3.25;;
75649;SDS011;64245;51.282;22.494;2023-09-19T13:45:08;3.90;;;2.67;;
75649;SDS011;64245;51.282;22.494;2023-09-19T13:47:38;5.25;;;3.30;;
75649;SDS011;64245;51.282;22.494;2023-09-19T13:50:04;6.00;;;3.47;;
75649;SDS011;64245;51.282;22.494;2023-09-19T13:52:31;4.05;;;3.33;;
75649;SDS011;64245;51.282;22.494;2023-09-19T13:54:57;5.40;;;3.55;;
75649;SDS011;64245;51.282;22.494;2023-09-19T13:57:25;6.60;;;3.85;;
75649;SDS011;64245;51.282;22.494;2023-09-19T13:59:51;5.00;;;2.92;;
75649;SDS011;64245;51.282;22.494;2023-09-19T14:02:20;6.07;;;3.20;;
75649;SDS011;64245;51.282;22.494;2023-09-19T14:04:58;5.30;;;3.28;;
75649;SDS011;64245;51.282;22.494;2023-09-19T14:07:27;5.35;;;3.35;;
75649;SDS011;64245;51.282;22.494;2023-09-19T14:09:52;6.18;;;3.25;;
75649;SDS011;64245;51.282;22.494;2023-09-19T14:12:21;5.10;;;3.22;;
75649;SDS011;64245;51.282;22.494;2023-09-19T14:14:46;6.45;;;3.42;;
75649;SDS011;64245;51.282;22.494;2023-09-19T14:17:12;4.00;;;2.67;;
75649;SDS011;64245;51.282;22.494;2023-09-19T14:19:40;3.78;;;2.60;;
75649;SDS011;64245;51.282;22.494;2023-09-19T14:22:09;4.22;;;2.60;;
75649;SDS011;64245;51.282;22.494;2023-09-19T14:24:35;4.45;;;3.30;;
75649;SDS011;64245;51.282;22.494;2023-09-19T14:27:03;4.05;;;3.08;;
75649;SDS011;64245;51.282;22.494;2023-09-19T14:29:32;4.38;;;2.83;;
75649;SDS011;64245;51.282;22.494;2023-09-19T14:32:16;4.72;;;3.13;;
75649;SDS011;64245;51.282;22.494;2023-09-19T14:34:48;5.72;;;3.40;;
75649;SDS011;64245;51.282;22.494;2023-09-19T14:37:14;5.13;;;3.22;;
75649;SDS011;64245;51.282;22.494;2023-09-19T14:39:42;5.20;;;3.17;;
75649;SDS011;64245;51.282;22.494;2023-09-19T14:42:11;5.53;;;3.22;;
75649;SDS011;64245;51.282;22.494;2023-09-19T14:44:37;5.75;;;3.08;;
75649;SDS011;64245;51.282;22.494;2023-09-19T14:47:03;5.13;;;3.42;;
75649;SDS011;64245;51.282;22.494;2023-09-19T14:49:33;4.90;;;3.15;;
75649;SDS011;64245;51.282;22.494;2023-09-19T14:52:00;6.47;;;3.53;;
75649;SDS011;64245;51.282;22.494;2023-09-19T14:54:29;5.25;;;3.30;;
75649;SDS011;64245;51.282;22.494;2023-09-19T14:57:00;5.28;;;3.50;;
75649;SDS011;64245;51.282;22.494;2023-09-19T14:59:34;6.72;;;3.97;;
75649;SDS011;64245;51.282;22.494;2023-09-19T15:02:04;4.68;;;3.03;;
75649;SDS011;64245;51.282;22.494;2023-09-19T15:04:30;4.95;;;3.15;;
75649;SDS011;64245;51.282;22.494;2023-09-19T15:06:56;8.05;;;4.07;;
75649;SDS011;64245;51.282;22.494;2023-09-19T15:09:22;7.50;;;4.53;;
75649;SDS011;64245;51.282;22.494;2023-09-19T15:11:54;5.78;;;3.33;;
75649;SDS011;64245;51.282;22.494;2023-09-19T15:14:21;5.65;;;3.63;;
75649;SDS011;64245;51.282;22.494;2023-09-19T15:16:47;4.85;;;3.30;;
75649;SDS011;64245;51.282;22.494;2023-09-19T15:19:16;7.18;;;3.88;;
75649;SDS011;64245;51.282;22.494;2023-09-19T15:21:43;5.55;;;3.53;;
75649;SDS011;64245;51.282;22.494;2023-09-19T15:24:11;7.15;;;3.83;;
75649;SDS011;64245;51.282;22.494;2023-09-19T15:26:37;6.43;;;3.67;;
75649;SDS011;64245;51.282;22.494;2023-09-19T15:29:06;6.75;;;4.30;;
75649;SDS011;64245;51.282;22.494;2023-09-19T15:31:32;9.20;;;4.43;;
75649;SDS011;64245;51.282;22.494;2023-09-19T15:33:58;7.13;;;4.18;;
75649;SDS011;64245;51.282;22.494;2023-09-19T15:36:25;7.68;;;4.85;;
75649;SDS011;64245;51.282;22.494;2023-09-19T15:39:00;10.30;;;4.88;;
75649;SDS011;64245;51.282;22.494;2023-09-19T15:41:27;9.75;;;5.45;;
75649;SDS011;64245;51.282;22.494;2023-09-19T15:43:55;9.48;;;5.15;;
75649;SDS011;64245;51.282;22.494;2023-09-19T15:46:22;6.93;;;4.43;;
75649;SDS011;64245;51.282;22.494;2023-09-19T15:48:48;4.65;;;3.22;;